Time,TemperatureF,DewpointF,PressureIn,WindDirection,WindDirectionDegrees,WindSpeedMPH,WindSpeedGustMPH,Humidity,HourlyPrecipIn,Conditions,Clouds,dailyrainin,SoftwareType,DateUTC
2013-08-24 00:02:00,73.0,47.0,-100.00,West,262,8.0,17.0,39,0.00,,,0.08,,2013-08-24 00:02:00,
2013-08-24 00:11:00,73.0,47.0,-100.00,West,262,8.0,17.0,39,0.00,,,0.08,,2013-08-24 00:11:00,
2013-08-24 00:43:00,72.0,47.0,-100.00,SW,220,3.0,9.0,41,0.00,,,0.08,,2013-08-24 00:43:00,
2013-08-24 00:53:00,72.0,47.0,-100.00,SW,220,3.0,9.0,41,0.00,,,0.08,,2013-08-24 00:53:00,
2013-08-24 01:02:00,72.0,47.0,-100.00,SW,220,3.0,9.0,41,0.00,,,0.08,,2013-08-24 01:02:00,
2013-08-24 01:11:00,72.0,47.0,-100.00,SW,220,3.0,9.0,41,0.00,,,0.08,,2013-08-24 01:11:00,
2013-08-24 01:42:00,70.0,48.0,-100.00,SSW,196,2.0,5.0,46,0.00,,,0.00,,2013-08-24 01:42:00,
2013-08-24 01:53:00,70.0,48.0,-100.00,SSW,196,2.0,5.0,46,0.00,,,0.00,,2013-08-24 01:53:00,
2013-08-24 02:02:00,70.0,48.0,-100.00,SSW,196,2.0,5.0,46,0.00,,,0.00,,2013-08-24 02:02:00,
2013-08-24 02:11:00,70.0,48.0,-100.00,SSW,196,2.0,5.0,46,0.00,,,0.00,,2013-08-24 02:11:00,
2013-08-24 02:42:00,64.0,51.0,-100.00,NW,310,4.0,8.0,63,0.00,,,0.00,,2013-08-24 02:42:00,
2013-08-24 02:52:00,64.0,51.0,-100.00,NW,310,4.0,8.0,63,0.00,,,0.00,,2013-08-24 02:52:00,
2013-08-24 03:02:00,64.0,51.0,-100.00,NW,310,4.0,8.0,63,0.00,,,0.00,,2013-08-24 03:02:00,
2013-08-24 03:11:00,64.0,51.0,-100.00,NW,310,4.0,8.0,63,0.00,,,0.00,,2013-08-24 03:11:00,
2013-08-24 03:44:00,63.0,48.0,-100.00,East,96,3.0,5.0,58,0.00,,,0.00,,2013-08-24 03:44:00,
2013-08-24 03:55:00,63.0,48.0,-100.00,East,96,3.0,5.0,58,0.00,,,0.00,,2013-08-24 03:55:00,
2013-08-24 04:04:00,63.0,48.0,-100.00,East,96,3.0,5.0,58,0.00,,,0.00,,2013-08-24 04:04:00,
2013-08-24 04:14:00,63.0,48.0,-100.00,East,96,3.0,5.0,58,0.00,,,0.00,,2013-08-24 04:14:00,
2013-08-24 04:44:00,58.0,49.0,-100.00,ESE,115,2.0,5.0,71,0.00,,,0.00,,2013-08-24 04:44:00,
2013-08-24 04:53:00,58.0,49.0,-100.00,ESE,115,2.0,5.0,71,0.00,,,0.00,,2013-08-24 04:53:00,
2013-08-24 05:03:00,58.0,49.0,-100.00,ESE,115,2.0,5.0,71,0.00,,,0.00,,2013-08-24 05:03:00,
2013-08-24 05:12:00,58.0,49.0,-100.00,ESE,115,2.0,5.0,71,0.00,,,0.00,,2013-08-24 05:12:00,
2013-08-24 05:43:00,55.0,49.0,-100.00,ESE,103,3.0,5.0,80,0.00,,,0.00,,2013-08-24 05:43:00,
2013-08-24 05:53:00,55.0,49.0,-100.00,ESE,103,3.0,5.0,80,0.00,,,0.00,,2013-08-24 05:53:00,
2013-08-24 06:02:00,55.0,49.0,-100.00,ESE,103,3.0,5.0,80,0.00,,,0.00,,2013-08-24 06:02:00,
2013-08-24 06:12:00,55.0,49.0,-100.00,ESE,103,3.0,5.0,80,0.00,,,0.00,,2013-08-24 06:12:00,
2013-08-24 06:42:00,54.0,49.0,-100.00,East,89,3.0,5.0,84,0.00,,,0.00,,2013-08-24 06:42:00,
2013-08-24 06:52:00,54.0,49.0,-100.00,East,89,3.0,5.0,84,0.00,,,0.00,,2013-08-24 06:52:00,
2013-08-24 07:02:00,54.0,49.0,-100.00,East,89,3.0,5.0,84,0.00,,,0.00,,2013-08-24 07:02:00,
2013-08-24 07:11:00,54.0,49.0,-100.00,East,89,3.0,5.0,84,0.00,,,0.00,,2013-08-24 07:11:00,
2013-08-24 07:43:00,53.0,48.0,-100.00,West,262,1.0,5.0,82,0.00,,,0.00,,2013-08-24 07:43:00,
2013-08-24 07:53:00,53.0,48.0,-100.00,West,262,1.0,5.0,82,0.00,,,0.00,,2013-08-24 07:53:00,
2013-08-24 08:02:00,53.0,48.0,-100.00,West,262,1.0,5.0,82,0.00,,,0.00,,2013-08-24 08:02:00,
2013-08-24 08:12:00,53.0,48.0,-100.00,West,262,1.0,5.0,82,0.00,,,0.00,,2013-08-24 08:12:00,
2013-08-24 08:42:00,52.0,48.0,-100.00,South,187,1.0,4.0,86,0.00,,,0.00,,2013-08-24 08:42:00,
2013-08-24 08:52:00,52.0,48.0,-100.00,South,187,1.0,4.0,86,0.00,,,0.00,,2013-08-24 08:52:00,
2013-08-24 09:01:00,52.0,48.0,-100.00,South,187,1.0,4.0,86,0.00,,,0.00,,2013-08-24 09:01:00,
2013-08-24 09:11:00,52.0,48.0,-100.00,South,187,1.0,4.0,86,0.00,,,0.00,,2013-08-24 09:11:00,
2013-08-24 09:44:00,52.0,48.0,-100.00,NW,323,0.0,2.0,86,0.00,,,0.00,,2013-08-24 09:44:00,
2013-08-24 09:53:00,52.0,48.0,-100.00,NW,323,0.0,2.0,86,0.00,,,0.00,,2013-08-24 09:53:00,
2013-08-24 10:03:00,52.0,48.0,-100.00,NW,323,0.0,2.0,86,0.00,,,0.00,,2013-08-24 10:03:00,
2013-08-24 10:13:00,52.0,48.0,-100.00,NW,323,0.0,2.0,86,0.00,,,0.00,,2013-08-24 10:13:00,
2013-08-24 10:42:00,51.0,48.0,-100.00,SSW,208,1.0,4.0,90,0.00,,,0.00,,2013-08-24 10:42:00,
2013-08-24 10:53:00,51.0,48.0,-100.00,SSW,208,1.0,4.0,90,0.00,,,0.00,,2013-08-24 10:53:00,
2013-08-24 11:02:00,51.0,48.0,-100.00,SSW,208,1.0,4.0,90,0.00,,,0.00,,2013-08-24 11:02:00,
2013-08-24 11:11:00,51.0,48.0,-100.00,SSW,208,1.0,4.0,90,0.00,,,0.00,,2013-08-24 11:11:00,
2013-08-24 11:42:00,63.0,47.0,-100.00,SE,134,8.0,13.0,56,0.00,,,-99.99,,2013-08-24 11:42:00,
2013-08-24 11:52:00,63.0,47.0,-100.00,SE,134,8.0,13.0,56,0.00,,,-99.99,,2013-08-24 11:52:00,
2013-08-24 12:02:00,63.0,47.0,-100.00,SE,134,8.0,13.0,56,0.00,,,-99.99,,2013-08-24 12:02:00,
2013-08-24 12:11:00,63.0,47.0,-100.00,SE,134,8.0,13.0,56,0.00,,,-99.99,,2013-08-24 12:11:00,
2013-08-24 12:42:00,61.0,48.0,-100.00,SE,128,10.0,18.0,62,0.00,,,0.00,,2013-08-24 12:42:00,
2013-08-24 12:52:00,61.0,48.0,-100.00,SE,128,10.0,18.0,62,0.00,,,0.00,,2013-08-24 12:52:00,
2013-08-24 13:02:00,61.0,48.0,-100.00,SE,128,10.0,18.0,62,0.00,,,0.00,,2013-08-24 13:02:00,
2013-08-24 13:11:00,61.0,48.0,-100.00,SE,128,10.0,18.0,62,0.00,,,0.00,,2013-08-24 13:11:00,
2013-08-24 13:42:00,61.0,50.0,-100.00,South,183,4.0,17.0,67,0.00,,,0.00,,2013-08-24 13:42:00,
2013-08-24 13:52:00,61.0,50.0,-100.00,South,183,4.0,17.0,67,0.00,,,0.00,,2013-08-24 13:52:00,
2013-08-24 14:02:00,61.0,50.0,-100.00,South,183,4.0,17.0,67,0.00,,,0.00,,2013-08-24 14:02:00,
2013-08-24 14:11:00,61.0,50.0,-100.00,South,183,4.0,17.0,67,0.00,,,0.00,,2013-08-24 14:11:00,
2013-08-24 14:42:00,60.0,51.0,-100.00,NE,52,3.0,10.0,72,0.00,,,0.00,,2013-08-24 14:42:00,
2013-08-24 14:52:00,60.0,51.0,-100.00,NE,52,3.0,10.0,72,0.00,,,0.00,,2013-08-24 14:52:00,
2013-08-24 15:01:00,60.0,51.0,-100.00,NE,52,3.0,10.0,72,0.00,,,0.00,,2013-08-24 15:01:00,
2013-08-24 15:11:00,60.0,51.0,-100.00,NE,52,3.0,10.0,72,0.00,,,0.00,,2013-08-24 15:11:00,
2013-08-24 15:45:00,60.0,52.0,-100.00,NNE,30,2.0,10.0,76,0.00,,,0.00,,2013-08-24 15:45:00,
2013-08-24 15:54:00,60.0,52.0,-100.00,NNE,30,2.0,10.0,76,0.00,,,0.00,,2013-08-24 15:54:00,
2013-08-24 16:04:00,60.0,52.0,-100.00,NNE,30,2.0,10.0,76,0.00,,,0.00,,2013-08-24 16:04:00,
2013-08-24 16:13:00,60.0,52.0,-100.00,NNE,30,2.0,10.0,76,0.00,,,0.00,,2013-08-24 16:13:00,
2013-08-24 16:42:00,62.0,52.0,-100.00,NNE,32,4.0,12.0,69,0.00,,,0.00,,2013-08-24 16:42:00,
2013-08-24 16:53:00,62.0,52.0,-100.00,NNE,32,4.0,12.0,69,0.00,,,0.00,,2013-08-24 16:53:00,
2013-08-24 17:02:00,62.0,52.0,-100.00,NNE,32,4.0,12.0,69,0.00,,,0.00,,2013-08-24 17:02:00,
2013-08-24 17:12:00,62.0,52.0,-100.00,NNE,32,4.0,12.0,69,0.00,,,0.00,,2013-08-24 17:12:00,
2013-08-24 17:42:00,60.0,51.0,-100.00,ESE,110,6.0,14.0,72,0.00,,,0.00,,2013-08-24 17:42:00,
2013-08-24 17:52:00,60.0,51.0,-100.00,ESE,110,6.0,14.0,72,0.00,,,0.00,,2013-08-24 17:52:00,
2013-08-24 18:02:00,60.0,51.0,-100.00,ESE,110,6.0,14.0,72,0.00,,,0.00,,2013-08-24 18:02:00,
2013-08-24 18:13:00,60.0,51.0,-100.00,ESE,110,6.0,14.0,72,0.00,,,0.00,,2013-08-24 18:13:00,
2013-08-24 18:42:00,57.0,53.0,-100.00,West,267,5.0,12.0,88,0.04,,,0.04,,2013-08-24 18:42:00,
2013-08-24 18:53:00,57.0,53.0,-100.00,West,267,5.0,12.0,88,0.04,,,0.04,,2013-08-24 18:53:00,
2013-08-24 19:01:00,57.0,53.0,-100.00,West,267,5.0,12.0,88,0.04,,,0.04,,2013-08-24 19:01:00,
2013-08-24 19:12:00,57.0,53.0,-100.00,West,267,5.0,12.0,88,0.04,,,0.04,,2013-08-24 19:12:00,
2013-08-24 19:42:00,58.0,56.0,-100.00,WSW,256,4.0,11.0,93,0.01,,,0.05,,2013-08-24 19:42:00,
2013-08-24 19:52:00,58.0,56.0,-100.00,WSW,256,4.0,11.0,93,0.01,,,0.05,,2013-08-24 19:52:00,
2013-08-24 20:02:00,58.0,56.0,-100.00,WSW,256,4.0,11.0,93,0.01,,,0.05,,2013-08-24 20:02:00,
2013-08-24 20:11:00,58.0,56.0,-100.00,WSW,256,4.0,11.0,93,0.01,,,0.05,,2013-08-24 20:11:00,
2013-08-24 20:42:00,60.0,57.0,-100.00,WSW,241,3.0,9.0,91,0.02,,,0.07,,2013-08-24 20:42:00,
2013-08-24 20:52:00,60.0,57.0,-100.00,WSW,241,3.0,9.0,91,0.02,,,0.07,,2013-08-24 20:52:00,
2013-08-24 21:02:00,60.0,57.0,-100.00,WSW,241,3.0,9.0,91,0.02,,,0.07,,2013-08-24 21:02:00,
2013-08-24 21:11:00,60.0,57.0,-100.00,WSW,241,3.0,9.0,91,0.02,,,0.07,,2013-08-24 21:11:00,
2013-08-24 21:43:00,61.0,58.0,-100.00,East,99,3.0,6.0,90,0.01,,,0.08,,2013-08-24 21:43:00,
2013-08-24 21:55:00,61.0,58.0,-100.00,East,99,3.0,6.0,90,0.01,,,0.08,,2013-08-24 21:55:00,
2013-08-24 22:04:00,61.0,58.0,-100.00,East,99,3.0,6.0,90,0.01,,,0.08,,2013-08-24 22:04:00,
2013-08-24 22:13:00,61.0,58.0,-100.00,East,99,3.0,6.0,90,0.01,,,0.08,,2013-08-24 22:13:00,
2013-08-24 22:43:00,68.0,57.0,-100.00,ESE,121,8.0,15.0,69,0.00,,,0.08,,2013-08-24 22:43:00,
2013-08-24 22:53:00,68.0,57.0,-100.00,ESE,121,8.0,15.0,69,0.00,,,0.08,,2013-08-24 22:53:00,
2013-08-24 23:03:00,68.0,57.0,-100.00,ESE,121,8.0,15.0,69,0.00,,,0.08,,2013-08-24 23:03:00,
2013-08-24 23:12:00,68.0,57.0,-100.00,ESE,121,8.0,15.0,69,0.00,,,0.08,,2013-08-24 23:12:00,
2013-08-24 23:43:00,72.0,51.0,-100.00,ESE,110,6.0,14.0,48,0.00,,,0.08,,2013-08-24 23:43:00,
2013-08-24 23:53:00,72.0,51.0,-100.00,ESE,110,6.0,14.0,48,0.00,,,0.08,,2013-08-24 23:53:00,